sensor_id;sensor_type;location;lat;lon;timestamp;P1;durP1;ratioP1;P2;durP2;ratioP2
19219;SDS011;9744;49.364;7.484;2023-01-09T00:01:37;13.52;;;6.15;;
19219;SDS011;9744;49.364;7.484;2023-01-09T00:04:07;9.35;;;6.10;;
19219;SDS011;9744;49.364;7.484;2023-01-09T00:06:35;8.55;;;5.75;;
19219;SDS011;9744;49.364;7.484;2023-01-09T00:09:04;9.20;;;5.65;;
19219;SDS011;9744;49.364;7.484;2023-01-09T00:11:32;7.85;;;5.90;;
19219;SDS011;9744;49.364;7.484;2023-01-09T00:13:59;9.38;;;6.32;;
19219;SDS011;9744;49.364;7.484;2023-01-09T00:16:26;13.02;;;6.22;;
19219;SDS011;9744;49.364;7.484;2023-01-09T00:18:53;12.05;;;6.70;;
19219;SDS011;9744;49.364;7.484;2023-01-09T00:21:22;7.18;;;4.57;;
19219;SDS011;9744;49.364;7.484;2023-01-09T00:23:51;8.45;;;5.13;;
19219;SDS011;9744;49.364;7.484;2023-01-09T00:26:19;11.75;;;4.80;;
19219;SDS011;9744;49.364;7.484;2023-01-09T00:28:47;7.82;;;4.35;;
19219;SDS011;9744;49.364;7.484;2023-01-09T00:31:16;5.13;;;3.67;;
19219;SDS011;9744;49.364;7.484;2023-01-09T00:33:44;5.22;;;3.90;;
19219;SDS011;9744;49.364;7.484;2023-01-09T00:36:15;6.68;;;4.10;;
19219;SDS011;9744;49.364;7.484;2023-01-09T00:38:44;5.43;;;3.17;;
19219;SDS011;9744;49.364;7.484;2023-01-09T00:41:12;7.55;;;4.00;;
19219;SDS011;9744;49.364;7.484;2023-01-09T00:43:45;5.93;;;3.83;;
19219;SDS011;9744;49.364;7.484;2023-01-09T00:46:15;3.95;;;3.45;;
19219;SDS011;9744;49.364;7.484;2023-01-09T00:48:45;7.10;;;3.25;;
19219;SDS011;9744;49.364;7.484;2023-01-09T00:51:14;4.72;;;3.33;;
19219;SDS011;9744;49.364;7.484;2023-01-09T00:53:41;3.88;;;2.65;;
19219;SDS011;9744;49.364;7.484;2023-01-09T00:56:12;8.27;;;2.53;;
19219;SDS011;9744;49.364;7.484;2023-01-09T00:58:42;3.67;;;2.83;;
19219;SDS011;9744;49.364;7.484;2023-01-09T01:01:09;3.97;;;2.72;;
19219;SDS011;9744;49.364;7.484;2023-01-09T01:03:37;4.40;;;2.30;;
19219;SDS011;9744;49.364;7.484;2023-01-09T01:06:05;4.63;;;2.50;;
19219;SDS011;9744;49.364;7.484;2023-01-09T01:08:51;3.65;;;2.72;;
19219;SDS011;9744;49.364;7.484;2023-01-09T01:11:20;3.88;;;2.72;;
19219;SDS011;9744;49.364;7.484;2023-01-09T01:13:47;4.30;;;2.63;;
19219;SDS011;9744;49.364;7.484;2023-01-09T01:16:15;3.33;;;1.70;;
19219;SDS011;9744;49.364;7.484;2023-01-09T01:18:42;2.60;;;1.30;;
19219;SDS011;9744;49.364;7.484;2023-01-09T01:21:10;5.85;;;1.13;;
19219;SDS011;9744;49.364;7.484;2023-01-09T01:23:38;1.83;;;0.98;;
19219;SDS011;9744;49.364;7.484;2023-01-09T01:26:08;1.63;;;1.02;;
19219;SDS011;9744;49.364;7.484;2023-01-09T01:28:37;1.45;;;0.80;;
19219;SDS011;9744;49.364;7.484;2023-01-09T01:31:04;4.32;;;0.80;;
19219;SDS011;9744;49.364;7.484;2023-01-09T01:33:33;1.40;;;0.90;;
19219;SDS011;9744;49.364;7.484;2023-01-09T01:36:01;1.20;;;0.88;;
19219;SDS011;9744;49.364;7.484;2023-01-09T01:38:29;1.38;;;0.90;;
19219;SDS011;9744;49.364;7.484;2023-01-09T01:40:57;1.48;;;1.00;;
19219;SDS011;9744;49.364;7.484;2023-01-09T01:43:26;1.42;;;0.80;;
19219;SDS011;9744;49.364;7.484;2023-01-09T01:45:53;0.70;;;0.70;;
19219;SDS011;9744;49.364;7.484;2023-01-09T01:48:21;0.98;;;0.80;;
19219;SDS011;9744;49.364;7.484;2023-01-09T01:50:52;2.22;;;0.93;;
19219;SDS011;9744;49.364;7.484;2023-01-09T01:53:23;0.65;;;0.65;;
19219;SDS011;9744;49.364;7.484;2023-01-09T01:55:55;5.72;;;0.90;;
19219;SDS011;9744;49.364;7.484;2023-01-09T01:58:33;1.33;;;1.02;;
19219;SDS011;9744;49.364;7.484;2023-01-09T02:01:04;2.13;;;0.77;;
19219;SDS011;9744;49.364;7.484;2023-01-09T02:03:31;2.58;;;1.05;;
19219;SDS011;9744;49.364;7.484;2023-01-09T02:05:59;5.18;;;0.90;;
19219;SDS011;9744;49.364;7.484;2023-01-09T02:08:29;1.67;;;1.02;;
19219;SDS011;9744;49.364;7.484;2023-01-09T02:10:56;0.63;;;0.63;;
19219;SDS011;9744;49.364;7.484;2023-01-09T02:13:24;1.23;;;0.75;;
19219;SDS011;9744;49.364;7.484;2023-01-09T02:16:04;0.75;;;0.75;;
19219;SDS011;9744;49.364;7.484;2023-01-09T02:18:47;0.85;;;0.68;;
19219;SDS011;9744;49.364;7.484;2023-01-09T02:21:23;1.40;;;0.85;;
19219;SDS011;9744;49.364;7.484;2023-01-09T02:27:00;0.75;;;0.70;;
19219;SDS011;9744;49.364;7.484;2023-01-09T02:32:50;1.65;;;1.17;;
19219;SDS011;9744;49.364;7.484;2023-01-09T02:35:34;1.83;;;1.00;;
19219;SDS011;9744;49.364;7.484;2023-01-09T02:38:14;2.47;;;1.20;;
19219;SDS011;9744;49.364;7.484;2023-01-09T02:40:49;0.73;;;0.73;;
19219;SDS011;9744;49.364;7.484;2023-01-09T02:43:21;2.05;;;0.70;;
19219;SDS011;9744;49.364;7.484;2023-01-09T02:45:51;0.90;;;0.70;;
19219;SDS011;9744;49.364;7.484;2023-01-09T02:48:18;3.72;;;0.80;;
19219;SDS011;9744;49.364;7.484;2023-01-09T02:50:46;6.63;;;1.10;;
19219;SDS011;9744;49.364;7.484;2023-01-09T02:59:12;2.42;;;0.80;;
19219;SDS011;9744;49.364;7.484;2023-01-09T03:01:51;2.70;;;0.70;;
19219;SDS011;9744;49.364;7.484;2023-01-09T03:04:26;0.70;;;0.70;;
19219;SDS011;9744;49.364;7.484;2023-01-09T03:07:06;1.45;;;0.77;;
19219;SDS011;9744;49.364;7.484;2023-01-09T03:09:38;2.08;;;0.90;;
19219;SDS011;9744;49.364;7.484;2023-01-09T03:12:08;2.35;;;1.30;;
19219;SDS011;9744;49.364;7.484;2023-01-09T03:14:42;2.88;;;1.40;;
19219;SDS011;9744;49.364;7.484;2023-01-09T03:17:14;5.88;;;1.20;;
19219;SDS011;9744;49.364;7.484;2023-01-09T03:19:46;1.55;;;1.30;;
19219;SDS011;9744;49.364;7.484;2023-01-09T03:22:16;3.05;;;1.13;;
19219;SDS011;9744;49.364;7.484;2023-01-09T03:24:44;3.22;;;1.17;;
19219;SDS011;9744;49.364;7.484;2023-01-09T03:27:11;1.13;;;1.00;;
19219;SDS011;9744;49.364;7.484;2023-01-09T03:29:38;1.85;;;1.15;;
19219;SDS011;9744;49.364;7.484;2023-01-09T03:32:05;1.42;;;1.20;;
19219;SDS011;9744;49.364;7.484;2023-01-09T03:34:34;3.58;;;1.63;;
19219;SDS011;9744;49.364;7.484;2023-01-09T03:37:01;3.20;;;1.13;;
19219;SDS011;9744;49.364;7.484;2023-01-09T03:39:29;1.80;;;1.17;;
19219;SDS011;9744;49.364;7.484;2023-01-09T03:41:57;2.20;;;1.00;;
19219;SDS011;9744;49.364;7.484;2023-01-09T03:44:24;2.25;;;1.05;;
19219;SDS011;9744;49.364;7.484;2023-01-09T03:46:51;1.63;;;1.20;;
19219;SDS011;9744;49.364;7.484;2023-01-09T03:49:18;5.90;;;1.50;;
19219;SDS011;9744;49.364;7.484;2023-01-09T03:51:47;5.85;;;1.25;;
19219;SDS011;9744;49.364;7.484;2023-01-09T03:54:14;1.58;;;1.40;;
19219;SDS011;9744;49.364;7.484;2023-01-09T03:56:41;2.60;;;1.08;;
19219;SDS011;9744;49.364;7.484;2023-01-09T03:59:08;1.73;;;1.13;;
19219;SDS011;9744;49.364;7.484;2023-01-09T04:01:35;1.55;;;1.08;;
19219;SDS011;9744;49.364;7.484;2023-01-09T04:04:03;1.88;;;1.10;;
19219;SDS011;9744;49.364;7.484;2023-01-09T04:06:30;1.10;;;1.00;;
19219;SDS011;9744;49.364;7.484;2023-01-09T04:08:59;1.88;;;1.30;;
19219;SDS011;9744;49.364;7.484;2023-01-09T04:11:26;2.25;;;1.08;;
19219;SDS011;9744;49.364;7.484;2023-01-09T04:13:53;4.85;;;0.90;;
19219;SDS011;9744;49.364;7.484;2023-01-09T04:16:20;6.20;;;1.20;;
19219;SDS011;9744;49.364;7.484;2023-01-09T04:18:47;8.63;;;1.35;;
19219;SDS011;9744;49.364;7.484;2023-01-09T04:21:14;4.68;;;0.80;;
19219;SDS011;9744;49.364;7.484;2023-01-09T04:23:41;8.40;;;0.90;;
19219;SDS011;9744;49.364;7.484;2023-01-09T04:26:11;4.35;;;0.88;;
19219;SDS011;9744;49.364;7.484;2023-01-09T04:28:38;2.90;;;0.70;;
19219;SDS011;9744;49.364;7.484;2023-01-09T04:31:05;6.05;;;1.00;;
19219;SDS011;9744;49.364;7.484;2023-01-09T04:33:32;3.28;;;0.73;;
19219;SDS011;9744;49.364;7.484;2023-01-09T04:36:00;2.75;;;0.65;;
19219;SDS011;9744;49.364;7.484;2023-01-09T04:38:27;5.72;;;1.45;;
19219;SDS011;9744;49.364;7.484;2023-01-09T04:40:54;9.30;;;1.08;;
19219;SDS011;9744;49.364;7.484;2023-01-09T04:43:23;6.47;;;1.05;;
19219;SDS011;9744;49.364;7.484;2023-01-09T04:45:50;4.45;;;0.93;;
19219;SDS011;9744;49.364;7.484;2023-01-09T04:48:17;5.47;;;1.15;;
19219;SDS011;9744;49.364;7.484;2023-01-09T04:50:44;3.75;;;0.82;;
19219;SDS011;9744;49.364;7.484;2023-01-09T04:53:12;9.75;;;1.08;;
19219;SDS011;9744;49.364;7.484;2023-01-09T04:55:39;9.13;;;1.02;;
19219;SDS011;9744;49.364;7.484;2023-01-09T04:58:07;14.23;;;3.42;;
19219;SDS011;9744;49.364;7.484;2023-01-09T05:00:36;7.10;;;1.08;;
19219;SDS011;9744;49.364;7.484;2023-01-09T05:03:03;4.75;;;0.70;;
19219;SDS011;9744;49.364;7.484;2023-01-09T05:05:30;5.93;;;1.10;;
19219;SDS011;9744;49.364;7.484;2023-01-09T05:07:57;3.25;;;0.70;;
19219;SDS011;9744;49.364;7.484;2023-01-09T05:10:25;4.47;;;0.98;;
19219;SDS011;9744;49.364;7.484;2023-01-09T05:12:52;3.17;;;1.02;;
19219;SDS011;9744;49.364;7.484;2023-01-09T05:15:19;6.93;;;0.88;;
19219;SDS011;9744;49.364;7.484;2023-01-09T05:17:48;8.98;;;1.00;;
19219;SDS011;9744;49.364;7.484;2023-01-09T05:20:15;5.20;;;1.77;;
19219;SDS011;9744;49.364;7.484;2023-01-09T05:22:42;10.40;;;1.30;;
19219;SDS011;9744;49.364;7.484;2023-01-09T05:25:09;6.45;;;1.30;;
19219;SDS011;9744;49.364;7.484;2023-01-09T05:27:37;6.70;;;1.42;;
19219;SDS011;9744;49.364;7.484;2023-01-09T05:30:04;6.93;;;1.17;;
19219;SDS011;9744;49.364;7.484;2023-01-09T05:32:32;6.15;;;0.90;;
19219;SDS011;9744;49.364;7.484;2023-01-09T05:35:00;5.22;;;1.42;;
19219;SDS011;9744;49.364;7.484;2023-01-09T05:37:28;10.98;;;1.40;;
19219;SDS011;9744;49.364;7.484;2023-01-09T05:39:55;17.92;;;1.88;;
19219;SDS011;9744;49.364;7.484;2023-01-09T05:42:23;14.10;;;1.25;;
19219;SDS011;9744;49.364;7.484;2023-01-09T05:44:50;9.90;;;1.50;;
19219;SDS011;9744;49.364;7.484;2023-01-09T05:47:17;7.97;;;1.60;;
19219;SDS011;9744;49.364;7.484;2023-01-09T05:49:44;8.00;;;1.55;;
19219;SDS011;9744;49.364;7.484;2023-01-09T05:52:13;12.63;;;2.15;;
19219;SDS011;9744;49.364;7.484;2023-01-09T05:54:40;9.25;;;1.80;;
19219;SDS011;9744;49.364;7.484;2023-01-09T05:57:07;9.27;;;2.17;;
19219;SDS011;9744;49.364;7.484;2023-01-09T05:59:35;10.90;;;2.50;;
19219;SDS011;9744;49.364;7.484;2023-01-09T06:02:02;16.98;;;2.78;;
19219;SDS011;9744;49.364;7.484;2023-01-09T06:04:30;13.15;;;2.92;;
19219;SDS011;9744;49.364;7.484;2023-01-09T06:07:01;22.77;;;6.00;;
19219;SDS011;9744;49.364;7.484;2023-01-09T06:09:30;23.63;;;4.93;;
19219;SDS011;9744;49.364;7.484;2023-01-09T06:11:57;15.48;;;5.15;;
19219;SDS011;9744;49.364;7.484;2023-01-09T06:14:24;15.98;;;5.50;;
19219;SDS011;9744;49.364;7.484;2023-01-09T06:16:51;21.15;;;5.07;;
19219;SDS011;9744;49.364;7.484;2023-01-09T06:19:18;11.73;;;4.43;;
19219;SDS011;9744;49.364;7.484;2023-01-09T06:21:46;14.88;;;4.70;;
19219;SDS011;9744;49.364;7.484;2023-01-09T06:24:13;17.63;;;4.20;;
19219;SDS011;9744;49.364;7.484;2023-01-09T06:26:43;22.58;;;3.70;;
19219;SDS011;9744;49.364;7.484;2023-01-09T06:29:10;13.75;;;2.92;;
19219;SDS011;9744;49.364;7.484;2023-01-09T06:31:37;23.70;;;5.43;;
19219;SDS011;9744;49.364;7.484;2023-01-09T06:34:04;19.95;;;3.90;;
19219;SDS011;9744;49.364;7.484;2023-01-09T06:36:31;13.73;;;3.05;;
19219;SDS011;9744;49.364;7.484;2023-01-09T06:38:58;12.93;;;2.83;;
19219;SDS011;9744;49.364;7.484;2023-01-09T06:41:26;16.30;;;3.10;;
19219;SDS011;9744;49.364;7.484;2023-01-09T06:43:55;10.65;;;2.65;;
19219;SDS011;9744;49.364;7.484;2023-01-09T06:46:23;9.23;;;2.45;;
19219;SDS011;9744;49.364;7.484;2023-01-09T06:48:52;13.85;;;2.70;;
19219;SDS011;9744;49.364;7.484;2023-01-09T06:51:19;11.60;;;2.38;;
19219;SDS011;9744;49.364;7.484;2023-01-09T06:53:46;12.10;;;2.60;;
19219;SDS011;9744;49.364;7.484;2023-01-09T06:56:14;14.20;;;2.53;;
19219;SDS011;9744;49.364;7.484;2023-01-09T06:58:41;10.90;;;2.88;;
19219;SDS011;9744;49.364;7.484;2023-01-09T07:01:10;11.23;;;2.70;;
19219;SDS011;9744;49.364;7.484;2023-01-09T07:03:37;10.82;;;2.45;;
19219;SDS011;9744;49.364;7.484;2023-01-09T07:06:05;12.25;;;2.90;;
19219;SDS011;9744;49.364;7.484;2023-01-09T07:08:33;12.45;;;4.68;;
19219;SDS011;9744;49.364;7.484;2023-01-09T07:11:00;26.25;;;6.53;;
19219;SDS011;9744;49.364;7.484;2023-01-09T07:13:27;15.55;;;4.53;;
19219;SDS011;9744;49.364;7.484;2023-01-09T07:15:56;16.08;;;3.33;;
19219;SDS011;9744;49.364;7.484;2023-01-09T07:18:24;16.02;;;3.70;;
19219;SDS011;9744;49.364;7.484;2023-01-09T07:20:52;13.15;;;4.32;;
19219;SDS011;9744;49.364;7.484;2023-01-09T07:23:19;22.85;;;3.95;;
19219;SDS011;9744;49.364;7.484;2023-01-09T07:25:47;23.88;;;4.32;;
19219;SDS011;9744;49.364;7.484;2023-01-09T07:28:17;18.65;;;4.30;;
19219;SDS011;9744;49.364;7.484;2023-01-09T07:30:44;24.58;;;3.53;;
19219;SDS011;9744;49.364;7.484;2023-01-09T07:33:11;16.52;;;3.47;;
19219;SDS011;9744;49.364;7.484;2023-01-09T07:35:40;14.90;;;3.50;;
19219;SDS011;9744;49.364;7.484;2023-01-09T07:38:07;11.93;;;3.97;;
19219;SDS011;9744;49.364;7.484;2023-01-09T07:40:34;21.08;;;5.55;;
19219;SDS011;9744;49.364;7.484;2023-01-09T07:43:02;11.88;;;3.42;;
19219;SDS011;9744;49.364;7.484;2023-01-09T07:45:29;13.82;;;5.70;;
19219;SDS011;9744;49.364;7.484;2023-01-09T07:47:57;12.98;;;3.45;;
19219;SDS011;9744;49.364;7.484;2023-01-09T07:50:25;15.98;;;4.75;;
19219;SDS011;9744;49.364;7.484;2023-01-09T07:52:53;11.23;;;3.45;;
19219;SDS011;9744;49.364;7.484;2023-01-09T07:55:21;9.18;;;3.75;;
19219;SDS011;9744;49.364;7.484;2023-01-09T07:57:48;16.95;;;4.80;;
19219;SDS011;9744;49.364;7.484;2023-01-09T08:00:16;13.77;;;3.15;;
19219;SDS011;9744;49.364;7.484;2023-01-09T08:02:45;9.93;;;2.40;;
19219;SDS011;9744;49.364;7.484;2023-01-09T08:05:17;5.57;;;2.30;;
19219;SDS011;9744;49.364;7.484;2023-01-09T08:07:44;10.77;;;4.25;;
19219;SDS011;9744;49.364;7.484;2023-01-09T08:10:15;8.15;;;3.38;;
19219;SDS011;9744;49.364;7.484;2023-01-09T08:12:44;11.63;;;2.90;;
19219;SDS011;9744;49.364;7.484;2023-01-09T08:15:12;13.93;;;2.40;;
19219;SDS011;9744;49.364;7.484;2023-01-09T08:17:41;9.43;;;2.47;;
19219;SDS011;9744;49.364;7.484;2023-01-09T08:20:10;11.02;;;1.90;;
19219;SDS011;9744;49.364;7.484;2023-01-09T08:23:10;10.60;;;2.28;;
19219;SDS011;9744;49.364;7.484;2023-01-09T08:25:41;10.05;;;2.10;;
19219;SDS011;9744;49.364;7.484;2023-01-09T08:28:15;8.48;;;2.03;;
19219;SDS011;9744;49.364;7.484;2023-01-09T08:34:53;16.35;;;2.55;;
19219;SDS011;9744;49.364;7.484;2023-01-09T08:37:24;12.82;;;2.67;;
19219;SDS011;9744;49.364;7.484;2023-01-09T08:39:53;12.98;;;2.63;;
19219;SDS011;9744;49.364;7.484;2023-01-09T08:42:25;17.08;;;3.13;;
19219;SDS011;9744;49.364;7.484;2023-01-09T08:45:10;9.50;;;1.95;;
19219;SDS011;9744;49.364;7.484;2023-01-09T08:47:55;12.05;;;2.45;;
19219;SDS011;9744;49.364;7.484;2023-01-09T08:50:23;11.48;;;2.00;;
19219;SDS011;9744;49.364;7.484;2023-01-09T08:56:44;5.00;;;1.60;;
19219;SDS011;9744;49.364;7.484;2023-01-09T08:59:22;8.18;;;2.13;;
19219;SDS011;9744;49.364;7.484;2023-01-09T09:01:50;10.82;;;2.17;;
19219;SDS011;9744;49.364;7.484;2023-01-09T09:04:20;11.38;;;2.35;;
19219;SDS011;9744;49.364;7.484;2023-01-09T09:06:48;9.38;;;1.88;;
19219;SDS011;9744;49.364;7.484;2023-01-09T09:12:17;5.32;;;1.63;;
19219;SDS011;9744;49.364;7.484;2023-01-09T09:14:49;5.15;;;1.80;;
19219;SDS011;9744;49.364;7.484;2023-01-09T09:17:34;8.38;;;2.17;;
19219;SDS011;9744;49.364;7.484;2023-01-09T09:20:03;6.13;;;1.23;;
19219;SDS011;9744;49.364;7.484;2023-01-09T09:22:38;8.18;;;1.38;;
19219;SDS011;9744;49.364;7.484;2023-01-09T09:25:09;8.18;;;3.50;;
19219;SDS011;9744;49.364;7.484;2023-01-09T09:36:06;7.03;;;2.50;;
19219;SDS011;9744;49.364;7.484;2023-01-09T09:38:38;7.47;;;2.88;;
19219;SDS011;9744;49.364;7.484;2023-01-09T09:41:10;12.20;;;2.42;;
19219;SDS011;9744;49.364;7.484;2023-01-09T09:44:09;7.25;;;1.83;;
19219;SDS011;9744;49.364;7.484;2023-01-09T09:47:08;8.27;;;2.15;;
19219;SDS011;9744;49.364;7.484;2023-01-09T09:49:51;6.68;;;1.80;;
19219;SDS011;9744;49.364;7.484;2023-01-09T09:52:53;8.32;;;1.90;;
19219;SDS011;9744;49.364;7.484;2023-01-09T09:55:26;9.93;;;2.45;;
19219;SDS011;9744;49.364;7.484;2023-01-09T09:57:56;11.85;;;3.45;;
19219;SDS011;9744;49.364;7.484;2023-01-09T10:00:35;10.40;;;2.90;;
19219;SDS011;9744;49.364;7.484;2023-01-09T10:03:04;9.88;;;2.05;;
19219;SDS011;9744;49.364;7.484;2023-01-09T10:25:39;11.27;;;2.13;;
19219;SDS011;9744;49.364;7.484;2023-01-09T10:56:07;11.55;;;2.20;;
19219;SDS011;9744;49.364;7.484;2023-01-09T11:20:12;4.97;;;1.65;;
19219;SDS011;9744;49.364;7.484;2023-01-09T11:22:43;3.80;;;1.30;;
19219;SDS011;9744;49.364;7.484;2023-01-09T11:25:15;5.35;;;1.83;;
19219;SDS011;9744;49.364;7.484;2023-01-09T11:27:51;13.05;;;3.40;;
19219;SDS011;9744;49.364;7.484;2023-01-09T11:30:49;11.18;;;1.58;;
19219;SDS011;9744;49.364;7.484;2023-01-09T11:33:19;14.88;;;4.03;;
19219;SDS011;9744;49.364;7.484;2023-01-09T11:35:53;6.82;;;2.30;;
19219;SDS011;9744;49.364;7.484;2023-01-09T11:38:31;4.55;;;1.75;;
19219;SDS011;9744;49.364;7.484;2023-01-09T11:42:00;5.55;;;1.40;;
19219;SDS011;9744;49.364;7.484;2023-01-09T11:44:31;4.05;;;1.27;;
19219;SDS011;9744;49.364;7.484;2023-01-09T11:46:59;8.55;;;1.70;;
19219;SDS011;9744;49.364;7.484;2023-01-09T11:49:27;8.77;;;2.47;;
19219;SDS011;9744;49.364;7.484;2023-01-09T11:54:47;5.95;;;1.45;;
19219;SDS011;9744;49.364;7.484;2023-01-09T11:57:18;4.25;;;1.13;;
19219;SDS011;9744;49.364;7.484;2023-01-09T11:59:47;4.68;;;0.93;;
19219;SDS011;9744;49.364;7.484;2023-01-09T12:02:24;3.00;;;1.05;;
19219;SDS011;9744;49.364;7.484;2023-01-09T12:05:14;5.60;;;1.23;;
19219;SDS011;9744;49.364;7.484;2023-01-09T12:11:05;8.10;;;2.60;;
19219;SDS011;9744;49.364;7.484;2023-01-09T12:13:45;6.78;;;3.17;;
19219;SDS011;9744;49.364;7.484;2023-01-09T12:16:24;8.38;;;1.90;;
19219;SDS011;9744;49.364;7.484;2023-01-09T12:19:11;3.95;;;1.60;;
19219;SDS011;9744;49.364;7.484;2023-01-09T12:21:52;5.65;;;1.35;;
19219;SDS011;9744;49.364;7.484;2023-01-09T12:24:34;7.57;;;1.48;;
19219;SDS011;9744;49.364;7.484;2023-01-09T12:27:24;10.82;;;2.70;;
19219;SDS011;9744;49.364;7.484;2023-01-09T12:33:00;9.40;;;1.20;;
19219;SDS011;9744;49.364;7.484;2023-01-09T12:35:39;18.55;;;7.97;;
19219;SDS011;9744;49.364;7.484;2023-01-09T12:38:13;5.20;;;1.00;;
19219;SDS011;9744;49.364;7.484;2023-01-09T12:53:15;8.70;;;3.00;;
19219;SDS011;9744;49.364;7.484;2023-01-09T12:55:48;5.10;;;1.13;;
19219;SDS011;9744;49.364;7.484;2023-01-09T12:58:25;6.82;;;1.77;;
19219;SDS011;9744;49.364;7.484;2023-01-09T13:00:57;6.38;;;1.30;;
19219;SDS011;9744;49.364;7.484;2023-01-09T13:03:30;8.18;;;1.55;;
19219;SDS011;9744;49.364;7.484;2023-01-09T13:06:02;7.93;;;1.48;;
19219;SDS011;9744;49.364;7.484;2023-01-09T13:08:37;4.03;;;1.25;;
19219;SDS011;9744;49.364;7.484;2023-01-09T13:11:07;3.65;;;0.85;;
19219;SDS011;9744;49.364;7.484;2023-01-09T13:13:41;6.82;;;1.17;;
19219;SDS011;9744;49.364;7.484;2023-01-09T13:16:13;7.15;;;1.23;;
19219;SDS011;9744;49.364;7.484;2023-01-09T13:18:45;6.38;;;1.02;;
19219;SDS011;9744;49.364;7.484;2023-01-09T13:21:16;3.67;;;0.98;;
19219;SDS011;9744;49.364;7.484;2023-01-09T13:23:46;4.65;;;1.77;;
19219;SDS011;9744;49.364;7.484;2023-01-09T13:26:18;3.70;;;1.20;;
19219;SDS011;9744;49.364;7.484;2023-01-09T13:28:51;11.30;;;1.17;;
19219;SDS011;9744;49.364;7.484;2023-01-09T13:31:37;6.80;;;1.48;;
19219;SDS011;9744;49.364;7.484;2023-01-09T13:34:16;4.05;;;0.85;;
19219;SDS011;9744;49.364;7.484;2023-01-09T13:36:46;9.20;;;1.58;;
19219;SDS011;9744;49.364;7.484;2023-01-09T13:39:19;6.72;;;1.02;;
19219;SDS011;9744;49.364;7.484;2023-01-09T13:41:50;4.60;;;0.80;;
19219;SDS011;9744;49.364;7.484;2023-01-09T13:44:37;8.02;;;1.15;;
19219;SDS011;9744;49.364;7.484;2023-01-09T13:47:12;6.97;;;1.08;;
19219;SDS011;9744;49.364;7.484;2023-01-09T13:52:50;12.07;;;1.30;;
19219;SDS011;9744;49.364;7.484;2023-01-09T13:55:27;8.48;;;2.60;;
19219;SDS011;9744;49.364;7.484;2023-01-09T13:58:15;6.47;;;1.35;;
19219;SDS011;9744;49.364;7.484;2023-01-09T14:00:51;3.40;;;1.00;;
19219;SDS011;9744;49.364;7.484;2023-01-09T14:03:24;5.07;;;1.00;;
19219;SDS011;9744;49.364;7.484;2023-01-09T14:06:04;3.80;;;0.70;;
19219;SDS011;9744;49.364;7.484;2023-01-09T14:08:43;6.85;;;1.42;;
19219;SDS011;9744;49.364;7.484;2023-01-09T14:11:19;11.18;;;4.50;;
19219;SDS011;9744;49.364;7.484;2023-01-09T14:13:54;8.15;;;2.63;;
19219;SDS011;9744;49.364;7.484;2023-01-09T14:16:29;5.55;;;1.83;;
19219;SDS011;9744;49.364;7.484;2023-01-09T14:19:00;3.00;;;2.03;;
19219;SDS011;9744;49.364;7.484;2023-01-09T14:21:45;5.85;;;1.15;;
19219;SDS011;9744;49.364;7.484;2023-01-09T14:24:19;7.70;;;3.05;;
19219;SDS011;9744;49.364;7.484;2023-01-09T14:26:50;5.00;;;0.90;;
19219;SDS011;9744;49.364;7.484;2023-01-09T14:35:21;7.10;;;1.50;;
19219;SDS011;9744;49.364;7.484;2023-01-09T14:41:57;6.35;;;1.00;;
19219;SDS011;9744;49.364;7.484;2023-01-09T14:44:34;3.13;;;0.93;;
19219;SDS011;9744;49.364;7.484;2023-01-09T14:47:13;6.80;;;1.77;;
19219;SDS011;9744;49.364;7.484;2023-01-09T14:49:44;6.65;;;1.60;;
19219;SDS011;9744;49.364;7.484;2023-01-09T14:52:19;6.13;;;1.30;;
19219;SDS011;9744;49.364;7.484;2023-01-09T14:54:50;2.28;;;0.90;;
19219;SDS011;9744;49.364;7.484;2023-01-09T14:57:25;9.65;;;1.13;;
19219;SDS011;9744;49.364;7.484;2023-01-09T14:59:57;3.80;;;1.33;;
19219;SDS011;9744;49.364;7.484;2023-01-09T15:02:26;3.05;;;1.25;;
19219;SDS011;9744;49.364;7.484;2023-01-09T15:04:57;8.10;;;1.67;;
19219;SDS011;9744;49.364;7.484;2023-01-09T15:07:33;7.75;;;0.98;;
19219;SDS011;9744;49.364;7.484;2023-01-09T15:10:11;13.70;;;2.15;;
19219;SDS011;9744;49.364;7.484;2023-01-09T15:12:44;6.78;;;1.75;;
19219;SDS011;9744;49.364;7.484;2023-01-09T15:15:13;9.63;;;1.80;;
19219;SDS011;9744;49.364;7.484;2023-01-09T15:17:43;10.43;;;1.50;;
19219;SDS011;9744;49.364;7.484;2023-01-09T15:20:15;7.03;;;1.67;;
19219;SDS011;9744;49.364;7.484;2023-01-09T15:22:47;10.32;;;1.90;;
19219;SDS011;9744;49.364;7.484;2023-01-09T15:25:20;12.63;;;2.05;;
19219;SDS011;9744;49.364;7.484;2023-01-09T15:27:53;4.20;;;1.15;;
19219;SDS011;9744;49.364;7.484;2023-01-09T15:30:23;8.50;;;2.05;;
19219;SDS011;9744;49.364;7.484;2023-01-09T15:32:54;4.70;;;1.25;;
19219;SDS011;9744;49.364;7.484;2023-01-09T15:35:22;5.25;;;1.13;;
19219;SDS011;9744;49.364;7.484;2023-01-09T15:37:50;4.13;;;1.20;;
19219;SDS011;9744;49.364;7.484;2023-01-09T15:40:19;1.77;;;0.80;;
19219;SDS011;9744;49.364;7.484;2023-01-09T15:42:52;6.65;;;1.30;;
19219;SDS011;9744;49.364;7.484;2023-01-09T15:45:23;5.68;;;1.55;;
19219;SDS011;9744;49.364;7.484;2023-01-09T15:47:53;2.90;;;1.17;;
19219;SDS011;9744;49.364;7.484;2023-01-09T15:50:39;2.85;;;1.00;;
19219;SDS011;9744;49.364;7.484;2023-01-09T15:53:08;4.63;;;1.38;;
19219;SDS011;9744;49.364;7.484;2023-01-09T15:55:38;3.65;;;1.05;;
19219;SDS011;9744;49.364;7.484;2023-01-09T16:14:10;5.85;;;2.30;;
19219;SDS011;9744;49.364;7.484;2023-01-09T16:16:40;5.63;;;3.08;;
19219;SDS011;9744;49.364;7.484;2023-01-09T16:19:26;12.52;;;6.97;;
19219;SDS011;9744;49.364;7.484;2023-01-09T16:21:58;2.67;;;1.40;;
19219;SDS011;9744;49.364;7.484;2023-01-09T16:24:27;11.13;;;4.25;;
19219;SDS011;9744;49.364;7.484;2023-01-09T16:29:49;5.50;;;2.70;;
19219;SDS011;9744;49.364;7.484;2023-01-09T16:32:19;12.63;;;4.80;;
19219;SDS011;9744;49.364;7.484;2023-01-09T16:34:50;14.73;;;6.40;;
19219;SDS011;9744;49.364;7.484;2023-01-09T16:37:19;6.00;;;3.67;;
19219;SDS011;9744;49.364;7.484;2023-01-09T16:43:00;5.63;;;3.60;;
19219;SDS011;9744;49.364;7.484;2023-01-09T16:45:30;12.25;;;6.57;;
19219;SDS011;9744;49.364;7.484;2023-01-09T16:47:59;6.72;;;4.50;;
19219;SDS011;9744;49.364;7.484;2023-01-09T16:50:27;6.05;;;4.03;;
19219;SDS011;9744;49.364;7.484;2023-01-09T16:52:55;7.18;;;3.88;;
19219;SDS011;9744;49.364;7.484;2023-01-09T16:55:22;8.77;;;4.63;;
19219;SDS011;9744;49.364;7.484;2023-01-09T16:57:50;8.05;;;4.60;;
19219;SDS011;9744;49.364;7.484;2023-01-09T17:00:18;12.05;;;6.10;;
19219;SDS011;9744;49.364;7.484;2023-01-09T17:02:48;20.90;;;10.15;;
19219;SDS011;9744;49.364;7.484;2023-01-09T17:05:15;18.80;;;8.70;;
19219;SDS011;9744;49.364;7.484;2023-01-09T17:07:42;10.40;;;6.13;;
19219;SDS011;9744;49.364;7.484;2023-01-09T17:10:14;10.27;;;6.20;;
19219;SDS011;9744;49.364;7.484;2023-01-09T17:12:46;9.15;;;5.95;;
19219;SDS011;9744;49.364;7.484;2023-01-09T17:15:15;20.60;;;8.95;;
19219;SDS011;9744;49.364;7.484;2023-01-09T17:17:42;13.80;;;5.97;;
19219;SDS011;9744;49.364;7.484;2023-01-09T17:20:16;15.52;;;6.43;;
19219;SDS011;9744;49.364;7.484;2023-01-09T17:22:46;7.35;;;4.13;;
19219;SDS011;9744;49.364;7.484;2023-01-09T17:32:37;20.73;;;5.97;;
19219;SDS011;9744;49.364;7.484;2023-01-09T17:35:06;7.07;;;3.35;;
19219;SDS011;9744;49.364;7.484;2023-01-09T17:37:37;8.45;;;3.05;;
19219;SDS011;9744;49.364;7.484;2023-01-09T17:40:08;6.18;;;2.88;;
19219;SDS011;9744;49.364;7.484;2023-01-09T17:42:42;9.00;;;3.30;;
19219;SDS011;9744;49.364;7.484;2023-01-09T17:45:10;9.45;;;3.55;;
19219;SDS011;9744;49.364;7.484;2023-01-09T17:47:41;10.35;;;4.25;;
19219;SDS011;9744;49.364;7.484;2023-01-09T17:50:13;6.80;;;3.83;;
19219;SDS011;9744;49.364;7.484;2023-01-09T17:52:46;5.15;;;3.33;;
19219;SDS011;9744;49.364;7.484;2023-01-09T17:55:16;7.70;;;3.17;;
19219;SDS011;9744;49.364;7.484;2023-01-09T17:57:43;6.32;;;3.80;;
19219;SDS011;9744;49.364;7.484;2023-01-09T18:00:23;11.27;;;3.83;;
19219;SDS011;9744;49.364;7.484;2023-01-09T18:02:52;7.90;;;4.78;;
19219;SDS011;9744;49.364;7.484;2023-01-09T18:05:23;9.82;;;4.15;;
19219;SDS011;9744;49.364;7.484;2023-01-09T18:08:01;10.30;;;4.85;;